Time;durP1;ratioP1;P1;durP2;ratioP2;P2;SDS_P1;SDS_P2;PMS_P1;PMS_P2;Temp;Humidity;BMP_temperature;BMP_pressure;BME280_temperature;BME280_humidity;BME280_pressure;Samples;Min_cycle;Max_cycle;Signal;HPM_P1;HPM_P2
2023/03/12 00:02:20;;;;;;;0.80;0.80;;;;;;;0.15;100.00;96921.19;4990391;28;20046;-80
2023/03/12 00:04:47;;;;;;;0.90;0.90;;;;;;;0.14;100.00;96919.56;4992109;28;20065;-79
2023/03/12 00:07:16;;;;;;;0.85;0.85;;;;;;;0.19;100.00;96914.38;4991602;28;20061;-79
2023/03/12 00:09:44;;;;;;;0.88;0.88;;;;;;;0.24;100.00;96909.19;4991362;28;20050;-79
2023/03/12 00:12:11;;;;;;;0.90;0.90;;;;;;;0.26;100.00;96893.88;4991577;28;20053;-79
2023/03/12 00:14:38;;;;;;;0.73;0.73;;;;;;;0.33;100.00;96905.19;4991464;28;20054;-80
2023/03/12 00:17:05;;;;;;;0.95;0.95;;;;;;;0.39;100.00;96898.94;4989977;28;20057;-80
2023/03/12 00:19:32;;;;;;;0.90;0.90;;;;;;;0.43;100.00;96894.78;4991597;28;20056;-79
2023/03/12 00:21:59;;;;;;;0.80;0.80;;;;;;;0.40;100.00;96895.22;4991859;28;20042;-80
2023/03/12 00:24:26;;;;;;;0.85;0.85;;;;;;;0.50;100.00;96883.25;4991543;28;20113;-80
2023/03/12 00:26:53;;;;;;;0.90;0.90;;;;;;;0.52;100.00;96867.91;4991514;28;20142;-80
2023/03/12 00:29:20;;;;;;;0.80;0.80;;;;;;;0.55;100.00;96865.56;4991444;28;20046;-79
2023/03/12 00:31:50;;;;;;;0.70;0.70;;;;;;;0.59;100.00;96850.00;4990245;28;20458;-79
2023/03/12 00:34:20;;;;;;;0.90;0.90;;;;;;;0.61;100.00;96855.91;4990014;28;20104;-78
2023/03/12 00:36:47;;;;;;;0.90;0.90;;;;;;;0.64;100.00;96852.78;4991203;28;20149;-79
2023/03/12 00:39:15;;;;;;;0.70;0.70;;;;;;;0.65;100.00;96833.13;4990841;28;20046;-79
2023/03/12 00:41:42;;;;;;;0.90;0.90;;;;;;;0.69;100.00;96839.59;4991059;28;20058;-79
2023/03/12 00:44:09;;;;;;;0.70;0.70;;;;;;;0.73;100.00;96832.75;4990960;28;20399;-79
2023/03/12 00:46:39;;;;;;;0.98;0.98;;;;;;;0.80;100.00;96835.28;4991270;28;20054;-79
2023/03/12 00:49:07;;;;;;;0.80;0.80;;;;;;;0.84;100.00;96810.69;4990773;28;20133;-79
2023/03/12 00:51:39;;;;;;;0.90;0.90;;;;;;;0.84;100.00;96810.69;4974622;28;20046;-79
2023/03/12 00:54:07;;;;;;;0.88;0.88;;;;;;;0.83;100.00;96802.94;4989511;28;20100;-79
2023/03/12 00:56:34;;;;;;;0.80;0.80;;;;;;;0.89;100.00;96806.50;4987840;28;20078;-80
2023/03/12 00:59:02;;;;;;;0.88;0.88;;;;;;;0.92;100.00;96806.06;4989761;28;20070;-81
2023/03/12 01:01:31;;;;;;;1.00;1.00;;;;;;;0.95;100.00;96797.63;4973810;28;20053;-81
2023/03/12 01:03:58;;;;;;;0.80;0.80;;;;;;;1.00;100.00;96782.56;4990950;28;20524;-78
2023/03/12 01:06:30;;;;;;;0.90;0.90;;;;;;;1.03;100.00;96787.41;4925751;28;20056;-78
2023/03/12 01:09:01;;;;;;;0.90;0.90;;;;;;;1.06;100.00;96786.94;4973875;28;20141;-79
2023/03/12 01:11:31;;;;;;;0.82;0.82;;;;;;;1.13;100.00;96781.47;4973739;28;20046;-79
2023/03/12 01:14:00;;;;;;;0.80;0.80;;;;;;;1.19;100.00;96769.06;4990862;28;20050;-80
2023/03/12 01:16:29;;;;;;;1.00;1.00;;;;;;;1.19;100.00;96764.59;4973868;28;20058;-80
2023/03/12 01:18:59;;;;;;;0.90;0.90;;;;;;;1.19;100.00;96764.59;4973293;28;20054;-79
2023/03/12 01:21:29;;;;;;;0.90;0.90;;;;;;;1.18;100.00;96762.97;4989389;28;20122;-80
2023/03/12 01:24:02;;;;;;;1.00;1.00;;;;;;;1.20;100.00;96766.19;4988940;28;20403;-78
2023/03/12 01:26:29;;;;;;;0.80;0.80;;;;;;;1.22;100.00;96750.81;4989291;28;20054;-78
2023/03/12 01:28:56;;;;;;;0.95;0.95;;;;;;;1.23;100.00;96749.78;4989867;28;20052;-79
2023/03/12 01:31:24;;;;;;;0.90;0.90;;;;;;;1.28;100.00;96741.88;4989244;28;20529;-79
2023/03/12 01:33:52;;;;;;;0.80;0.80;;;;;;;1.32;100.00;96738.75;4990967;28;20128;-79
2023/03/12 01:36:24;;;;;;;0.90;0.90;;;;;;;1.35;100.00;96735.63;4989192;28;20089;-79
2023/03/12 01:38:58;;;;;;;0.90;0.90;;;;;;;1.39;100.00;96731.41;4990837;28;20058;-79
2023/03/12 01:41:27;;;;;;;0.80;0.80;;;;;;;1.41;100.00;96742.63;4989349;28;20046;-79
2023/03/12 01:43:54;;;;;;;0.90;0.90;;;;;;;1.45;100.00;96738.44;4989704;28;20049;-80
2023/03/12 01:46:24;;;;;;;0.90;0.90;;;;;;;1.47;100.00;96737.16;4989074;28;20424;-78
2023/03/12 01:49:15;;;;;;;0.85;0.85;;;;;;;1.52;100.00;96733.78;4973914;28;20054;-79
2023/03/12 01:51:56;;;;;;;0.80;0.80;;;;;;;1.56;100.00;96726.91;4976304;28;20050;-79
2023/03/12 01:54:29;;;;;;;0.90;0.90;;;;;;;1.60;100.00;96717.41;4976624;28;20053;-79
2023/03/12 01:56:57;;;;;;;0.90;0.90;;;;;;;1.61;100.00;96708.38;4992511;28;20090;-79
2023/03/12 01:59:30;;;;;;;0.77;0.77;;;;;;;1.63;100.00;96698.31;4993817;28;20057;-79
2023/03/12 02:01:57;;;;;;;1.00;1.00;;;;;;;1.63;100.00;96703.63;4993999;28;20050;-79
2023/03/12 02:04:26;;;;;;;0.88;0.88;;;;;;;1.67;100.00;96693.28;4993507;28;20058;-78
2023/03/12 02:07:04;;;;;;;1.00;1.00;;;;;;;1.70;100.00;96677.69;4992799;28;20046;-79
2023/03/12 02:09:32;;;;;;;0.82;0.82;;;;;;;1.70;100.00;96683.00;4993653;28;20058;-80
2023/03/12 02:11:59;;;;;;;0.90;0.90;;;;;;;1.71;100.00;96671.31;4992680;28;20046;-78
2023/03/12 02:14:27;;;;;;;0.70;0.70;;;;;;;1.72;100.00;96664.94;4992487;28;20058;-78
2023/03/12 02:16:55;;;;;;;0.90;0.90;;;;;;;1.74;100.00;96678.78;4994107;28;20138;-79
2023/03/12 02:19:31;;;;;;;0.80;0.80;;;;;;;1.79;100.00;96655.97;4992394;28;20073;-78
2023/03/12 02:22:02;;;;;;;0.80;0.80;;;;;;;1.81;100.00;96664.53;4992538;28;20082;-77
2023/03/12 02:24:50;;;;;;;0.90;0.90;;;;;;;1.83;100.00;96665.09;4992540;28;20108;-78
2023/03/12 02:27:17;;;;;;;0.80;0.80;;;;;;;1.83;100.00;96619.88;4971530;28;20061;-79
2023/03/12 02:29:45;;;;;;;0.90;0.90;;;;;;;1.84;100.00;96651.53;4955105;28;20054;-78
2023/03/12 02:32:29;;;;;;;0.90;0.90;;;;;;;1.89;100.00;96632.16;4955157;28;20063;-78
2023/03/12 02:35:01;;;;;;;0.90;0.90;;;;;;;1.86;100.00;96640.66;4955709;28;20422;-78
2023/03/12 02:37:29;;;;;;;0.70;0.70;;;;;;;1.83;100.00;96635.81;4955371;28;20062;-78
2023/03/12 02:40:12;;;;;;;0.80;0.80;;;;;;;1.85;100.00;96626.56;4971613;28;20061;-78
2023/03/12 02:42:39;;;;;;;0.90;0.90;;;;;;;1.91;100.00;96632.75;4955320;28;20557;-78
2023/03/12 02:45:06;;;;;;;0.90;0.90;;;;;;;1.93;100.00;96620.78;4971435;28;20061;-77
2023/03/12 02:47:33;;;;;;;0.80;0.80;;;;;;;1.90;100.00;96605.34;4955290;28;20137;-77
2023/03/12 02:50:00;;;;;;;0.70;0.70;;;;;;;1.90;100.00;96615.97;4971392;28;20421;-78
2023/03/12 02:52:34;;;;;;;0.80;0.80;;;;;;;1.85;100.00;96601.78;4971148;28;20442;-78
2023/03/12 02:55:01;;;;;;;0.80;0.80;;;;;;;1.86;100.00;96609.53;4971316;28;20055;-79
2023/03/12 02:57:28;;;;;;;0.70;0.70;;;;;;;1.85;100.00;96601.78;4954704;28;20065;-77
2023/03/12 02:59:55;;;;;;;0.90;0.90;;;;;;;1.89;100.00;96595.72;4971221;28;20518;-78
2023/03/12 03:02:23;;;;;;;0.80;0.80;;;;;;;1.91;100.00;96595.50;4954413;28;20043;-78
2023/03/12 03:04:52;;;;;;;0.80;0.80;;;;;;;1.92;100.00;96605.06;4978302;28;20054;-78
2023/03/12 03:07:20;;;;;;;0.90;0.90;;;;;;;1.91;100.00;96590.19;4991901;28;20046;-79
2023/03/12 03:09:49;;;;;;;0.90;0.90;;;;;;;1.93;100.00;96588.88;4989712;28;20062;-78
2023/03/12 03:12:16;;;;;;;0.80;0.80;;;;;;;1.90;100.00;96583.22;4972115;28;20054;-79
2023/03/12 03:14:43;;;;;;;0.75;0.75;;;;;;;1.88;100.00;96561.41;4972390;28;20053;-78
2023/03/12 03:17:10;;;;;;;0.77;0.77;;;;;;;1.88;100.00;96570.19;4971915;28;20061;-79
2023/03/12 03:19:37;;;;;;;0.90;0.90;;;;;;;1.92;100.00;96565.16;4972469;28;20066;-77
2023/03/12 03:22:04;;;;;;;0.82;0.82;;;;;;;1.93;100.00;96561.47;4972095;28;20074;-77
2023/03/12 03:24:37;;;;;;;0.80;0.80;;;;;;;1.98;100.00;96558.88;4980019;28;20209;-80
2023/03/12 03:27:04;;;;;;;0.85;0.85;;;;;;;1.98;100.00;96560.75;4992526;28;20327;-78
2023/03/12 03:29:31;;;;;;;0.93;0.93;;;;;;;1.98;100.00;96564.19;4991337;28;20077;-79
2023/03/12 03:31:59;;;;;;;0.90;0.90;;;;;;;1.96;100.00;96555.66;4989853;28;20535;-78
2023/03/12 03:34:32;;;;;;;0.80;0.80;;;;;;;1.95;100.00;96544.22;4981372;28;20066;-76
2023/03/12 03:36:59;;;;;;;0.90;0.90;;;;;;;1.99;100.00;96541.06;4981630;28;20153;-77
2023/03/12 03:39:28;;;;;;;0.90;0.90;;;;;;;2.03;100.00;96540.31;4971619;28;20138;-76
2023/03/12 03:41:56;;;;;;;0.90;0.90;;;;;;;2.08;100.00;96535.03;4993312;28;20041;-77
2023/03/12 03:44:25;;;;;;;0.80;0.80;;;;;;;2.08;100.00;96534.25;4990963;28;20085;-77
2023/03/12 03:46:54;;;;;;;0.90;0.90;;;;;;;2.09;100.00;96533.19;4973182;28;20134;-78
2023/03/12 03:49:24;;;;;;;0.90;0.90;;;;;;;2.10;100.00;96527.63;4972526;28;20051;-78
2023/03/12 03:51:52;;;;;;;0.82;0.82;;;;;;;2.14;100.00;96525.25;4985179;28;20469;-78
2023/03/12 03:54:26;;;;;;;0.90;0.90;;;;;;;2.15;100.00;96514.38;4990299;28;20100;-77
2023/03/12 03:56:53;;;;;;;0.80;0.80;;;;;;;2.17;100.00;96509.56;4990780;28;20070;-78
2023/03/12 03:59:20;;;;;;;0.80;0.80;;;;;;;2.20;100.00;96502.94;4974154;28;20050;-78
2023/03/12 04:01:48;;;;;;;0.88;0.88;;;;;;;2.23;100.00;96497.13;4990414;28;20054;-78
2023/03/12 04:04:15;;;;;;;0.90;0.90;;;;;;;2.25;100.00;96496.88;4990534;28;20054;-77
2023/03/12 04:06:42;;;;;;;0.90;0.90;;;;;;;2.26;100.00;96480.66;4990392;28;20050;-78
2023/03/12 04:09:12;;;;;;;0.80;0.80;;;;;;;2.27;100.00;96482.25;4986794;28;20058;-77
2023/03/12 04:11:40;;;;;;;0.80;0.80;;;;;;;2.29;100.00;96485.47;4970903;28;20050;-77
2023/03/12 04:14:10;;;;;;;0.70;0.70;;;;;;;2.31;100.00;96472.72;4969986;28;20051;-78
2023/03/12 04:16:42;;;;;;;0.90;0.90;;;;;;;2.32;100.00;96473.50;4970697;28;20133;-77
2023/03/12 04:19:10;;;;;;;0.80;0.80;;;;;;;2.34;100.00;96466.88;5007865;28;20064;-78
2023/03/12 04:21:38;;;;;;;0.70;0.70;;;;;;;2.36;100.00;96464.78;4978859;28;20058;-77
2023/03/12 04:24:07;;;;;;;0.80;0.80;;;;;;;2.39;100.00;96460.78;4988877;28;20106;-78
2023/03/12 04:26:34;;;;;;;0.90;0.90;;;;;;;2.42;100.00;96456.81;4957041;28;20506;-79
2023/03/12 04:29:04;;;;;;;0.80;0.80;;;;;;;2.42;100.00;96456.81;4988910;28;20089;-77
2023/03/12 04:31:31;;;;;;;0.70;0.70;;;;;;;2.44;100.00;96454.72;4972794;28;20125;-78
2023/03/12 04:33:58;;;;;;;0.85;0.85;;;;;;;2.48;100.00;96455.78;4989006;28;20049;-78
2023/03/12 04:36:27;;;;;;;0.80;0.80;;;;;;;2.49;100.00;96450.22;4972340;28;20208;-78
2023/03/12 04:38:55;;;;;;;0.70;0.70;;;;;;;2.49;100.00;96452.88;4972618;28;20093;-79
2023/03/12 04:41:26;;;;;;;0.90;0.90;;;;;;;2.51;100.00;96450.78;4988581;28;20049;-78
2023/03/12 04:44:00;;;;;;;0.80;0.80;;;;;;;2.50;100.00;96445.69;4988823;28;20104;-79
2023/03/12 04:46:28;;;;;;;0.90;0.90;;;;;;;2.53;100.00;96451.34;4988424;28;20420;-77
2023/03/12 04:48:56;;;;;;;0.80;0.80;;;;;;;2.50;100.00;96443.84;4972565;28;20553;-79
2023/03/12 04:51:24;;;;;;;0.90;0.90;;;;;;;2.51;100.00;96442.00;4990605;28;20050;-79
2023/03/12 04:53:53;;;;;;;0.77;0.77;;;;;;;2.56;100.00;96440.16;4991168;28;20501;-77
2023/03/12 04:56:21;;;;;;;0.73;0.73;;;;;;;2.54;100.00;96431.63;4973312;28;20128;-78
2023/03/12 04:58:51;;;;;;;0.80;0.80;;;;;;;2.60;100.00;96427.13;4973741;28;20056;-78
2023/03/12 05:01:30;;;;;;;0.80;0.80;;;;;;;2.68;100.00;96428.50;4989511;28;20494;-78
2023/03/12 05:04:01;;;;;;;0.90;0.90;;;;;;;2.70;100.00;96423.72;4991024;28;20058;-77
2023/03/12 05:06:31;;;;;;;0.90;0.90;;;;;;;2.72;100.00;96419.75;4989919;28;20109;-78
2023/03/12 05:08:58;;;;;;;0.88;0.88;;;;;;;2.72;100.00;96408.31;4988571;28;20062;-78
2023/03/12 05:11:25;;;;;;;0.90;0.90;;;;;;;2.77;100.00;96408.34;4970759;28;20051;-78
2023/03/12 05:13:54;;;;;;;0.80;0.80;;;;;;;2.85;100.00;96407.03;4971593;28;20056;-77
2023/03/12 05:16:22;;;;;;;0.90;0.90;;;;;;;2.89;100.00;96406.28;4970788;28;20161;-77
2023/03/12 05:18:49;;;;;;;0.80;0.80;;;;;;;2.93;100.00;96399.34;4989812;28;20050;-77
2023/03/12 05:21:23;;;;;;;0.80;0.80;;;;;;;2.97;100.00;96400.44;4989754;28;20500;-78
2023/03/12 05:23:53;;;;;;;0.80;0.80;;;;;;;2.99;100.00;96393.00;4989669;28;20050;-78
2023/03/12 05:26:31;;;;;;;0.90;0.90;;;;;;;3.02;100.00;96392.47;4993082;28;20058;-78
2023/03/12 05:29:09;;;;;;;0.90;0.90;;;;;;;2.98;100.00;96394.03;4993303;28;20501;-78
2023/03/12 05:31:37;;;;;;;0.80;0.80;;;;;;;2.95;100.00;96405.22;4993372;28;20054;-77
2023/03/12 05:34:05;;;;;;;0.88;0.88;;;;;;;2.97;100.00;96389.78;4993298;28;20128;-78
2023/03/12 05:36:37;;;;;;;0.82;0.82;;;;;;;3.01;100.00;96382.91;4982425;28;20422;-79
2023/03/12 05:39:04;;;;;;;0.80;0.80;;;;;;;3.05;100.00;96388.50;4991789;28;20133;-79
2023/03/12 05:41:36;;;;;;;0.90;0.90;;;;;;;3.11;100.00;96386.66;4993344;28;20101;-79
2023/03/12 05:44:12;;;;;;;0.80;0.80;;;;;;;3.07;100.00;96382.91;4992961;28;20142;-79
2023/03/12 05:46:42;;;;;;;0.80;0.80;;;;;;;3.04;100.00;96385.03;4993011;28;20112;-79
2023/03/12 05:49:10;;;;;;;0.80;0.80;;;;;;;3.12;100.00;96366.94;4977729;28;20581;-80
2023/03/12 05:51:37;;;;;;;0.88;0.88;;;;;;;3.11;100.00;96357.31;4973272;28;20134;-80
2023/03/12 05:54:05;;;;;;;0.90;0.90;;;;;;;3.17;100.00;96361.63;4973482;28;20133;-79
2023/03/12 05:56:32;;;;;;;0.70;0.70;;;;;;;3.04;100.00;96353.06;4974257;28;20109;-78
2023/03/12 05:58:59;;;;;;;0.75;0.75;;;;;;;3.17;100.00;96358.97;4973663;28;20078;-77
2023/03/12 06:01:33;;;;;;;0.80;0.80;;;;;;;3.21;100.00;96357.38;4972970;28;20053;-79
2023/03/12 06:04:04;;;;;;;0.80;0.80;;;;;;;3.16;100.00;96349.34;4969889;28;20052;-78
2023/03/12 06:06:32;;;;;;;0.90;0.90;;;;;;;3.22;100.00;96349.13;4631285;28;9999998;-77
2023/03/12 06:09:01;;;;;;;0.90;0.90;;;;;;;3.26;100.00;96341.38;4956373;28;20062;-80
2023/03/12 06:11:33;;;;;;;0.80;0.80;;;;;;;3.32;100.00;96348.34;4989533;28;20113;-80
2023/03/12 06:14:00;;;;;;;0.80;0.80;;;;;;;3.37;100.00;96351.03;4987830;28;20477;-80
2023/03/12 06:16:28;;;;;;;0.70;0.70;;;;;;;3.38;100.00;96352.63;4994963;28;20105;-79
2023/03/12 06:18:57;;;;;;;0.80;0.80;;;;;;;3.39;100.00;96343.56;4988481;28;20116;-80
2023/03/12 06:21:35;;;;;;;0.90;0.90;;;;;;;3.39;100.00;96340.09;4991683;28;20054;-79
2023/03/12 06:24:05;;;;;;;0.85;0.85;;;;;;;3.36;100.00;96341.41;4976795;28;20157;-78
2023/03/12 06:26:45;;;;;;;0.77;0.77;;;;;;;3.34;100.00;96335.56;4987972;28;20673;-79
2023/03/12 06:29:12;;;;;;;0.70;0.70;;;;;;;3.41;100.00;96338.75;5002032;28;20068;-79
2023/03/12 06:31:40;;;;;;;0.80;0.80;;;;;;;3.47;100.00;96336.91;5001179;28;20038;-79
2023/03/12 06:34:09;;;;;;;0.90;0.90;;;;;;;3.54;100.00;96339.31;4993165;28;20049;-79
2023/03/12 06:36:39;;;;;;;0.80;0.80;;;;;;;3.55;100.00;96340.94;4995534;28;20077;-78
2023/03/12 06:39:07;;;;;;;0.80;0.80;;;;;;;3.59;100.00;96352.66;4987946;28;20421;-79
2023/03/12 06:41:37;;;;;;;0.80;0.80;;;;;;;3.62;100.00;96326.28;4989765;28;20054;-79
2023/03/12 06:44:05;;;;;;;0.80;0.80;;;;;;;3.61;100.00;96318.53;4981108;28;20051;-80
2023/03/12 06:46:32;;;;;;;0.90;0.90;;;;;;;3.62;100.00;96312.13;4975796;28;20058;-79
2023/03/12 06:48:59;;;;;;;0.80;0.80;;;;;;;3.65;100.00;96317.75;4988686;28;20056;-78
2023/03/12 06:51:26;;;;;;;0.90;0.90;;;;;;;3.65;100.00;96315.06;4988912;28;20108;-78
2023/03/12 06:53:56;;;;;;;0.90;0.90;;;;;;;3.66;100.00;96322.00;4989782;28;20052;-79
2023/03/12 06:56:29;;;;;;;0.77;0.77;;;;;;;3.68;100.00;96308.41;4988963;28;20081;-80
2023/03/12 06:58:57;;;;;;;0.80;0.80;;;;;;;3.66;100.00;96289.19;4983003;28;20061;-77
2023/03/12 07:01:24;;;;;;;0.90;0.90;;;;;;;3.71;100.00;96301.75;4986873;28;20771;-80
2023/03/12 07:03:51;;;;;;;0.70;0.70;;;;;;;3.72;100.00;96300.66;4968377;28;20050;-79
2023/03/12 07:06:20;;;;;;;0.80;0.80;;;;;;;3.72;100.00;96288.13;4990471;28;20046;-79
2023/03/12 07:08:51;;;;;;;0.80;0.80;;;;;;;3.73;100.00;96288.94;4990717;28;20700;-79
2023/03/12 07:11:18;;;;;;;0.80;0.80;;;;;;;3.65;100.00;96288.41;5002441;28;20057;-79
2023/03/12 07:13:45;;;;;;;0.90;0.90;;;;;;;3.70;100.00;96282.28;4999353;28;20054;-77
2023/03/12 07:16:30;;;;;;;0.80;0.80;;;;;;;3.80;100.00;96271.59;4996212;28;20453;-78
2023/03/12 07:18:57;;;;;;;0.90;0.90;;;;;;;3.84;100.00;96266.50;4987584;28;20077;-77
2023/03/12 07:21:25;;;;;;;0.80;0.80;;;;;;;3.87;100.00;96266.78;4988133;28;20050;-78
2023/03/12 07:23:52;;;;;;;0.70;0.70;;;;;;;3.84;100.00;96272.66;4989499;28;20474;-78
2023/03/12 07:26:19;;;;;;;0.70;0.70;;;;;;;3.79;100.00;96267.31;4998401;28;20053;-76
2023/03/12 07:28:48;;;;;;;0.70;0.70;;;;;;;3.82;100.00;96264.13;4977088;28;20085;-77
2023/03/12 07:31:16;;;;;;;0.80;0.80;;;;;;;3.79;100.00;96250.50;4958885;28;20108;-77
2023/03/12 07:33:43;;;;;;;0.70;0.70;;;;;;;3.84;100.00;96261.19;4980575;28;20141;-77
2023/03/12 07:36:10;;;;;;;0.70;0.70;;;;;;;3.91;100.00;96254.50;4984214;28;20055;-80
2023/03/12 07:38:38;;;;;;;0.80;0.80;;;;;;;3.96;100.00;96247.56;4975849;28;20058;-79
2023/03/12 07:41:05;;;;;;;0.80;0.80;;;;;;;3.93;100.00;96250.78;4972335;28;20047;-78
2023/03/12 07:43:32;;;;;;;0.70;0.70;;;;;;;3.90;100.00;96242.25;4985528;28;20046;-79
2023/03/12 07:45:59;;;;;;;0.80;0.80;;;;;;;3.96;100.00;96239.56;4987561;28;20601;-78
2023/03/12 07:48:27;;;;;;;0.80;0.80;;;;;;;3.96;100.00;96245.69;4984539;28;20058;-78
2023/03/12 07:50:56;;;;;;;0.80;0.80;;;;;;;3.99;100.00;96231.81;4987719;28;20057;-77
2023/03/12 07:53:23;;;;;;;0.80;0.80;;;;;;;3.99;100.00;96226.47;4982735;28;20050;-78
2023/03/12 07:55:53;;;;;;;0.80;0.80;;;;;;;4.01;100.00;96216.31;4979061;28;20414;-78
2023/03/12 07:58:20;;;;;;;0.80;0.80;;;;;;;4.05;100.00;96221.91;4974163;28;20157;-79
2023/03/12 08:00:48;;;;;;;0.80;0.80;;;;;;;4.03;100.00;96218.75;4987167;28;20910;-79
2023/03/12 08:03:18;;;;;;;0.70;0.70;;;;;;;4.04;100.00;96215.00;4980342;28;20079;-79
2023/03/12 08:06:00;;;;;;;0.70;0.70;;;;;;;4.01;100.00;96210.19;4995057;28;20504;-79
2023/03/12 08:08:41;;;;;;;0.75;0.75;;;;;;;4.04;100.00;96221.13;5001512;28;20063;-81
2023/03/12 08:11:09;;;;;;;0.73;0.73;;;;;;;4.03;100.00;96208.06;4986682;28;20065;-79
2023/03/12 08:13:36;;;;;;;0.80;0.80;;;;;;;4.00;100.00;96205.91;4980751;28;20046;-82
2023/03/12 08:16:03;;;;;;;0.80;0.80;;;;;;;4.05;100.00;96197.91;4976755;28;20051;-80
2023/03/12 08:18:33;;;;;;;0.70;0.70;;;;;;;3.96;100.00;96188.88;4978796;28;20062;-79
2023/03/12 08:21:02;;;;;;;0.80;0.80;;;;;;;4.01;100.00;96188.84;4996712;28;20076;-82
2023/03/12 08:23:29;;;;;;;0.80;0.80;;;;;;;3.99;100.00;96174.97;4995840;28;20092;-78
2023/03/12 08:25:57;;;;;;;0.80;0.80;;;;;;;4.07;100.00;96182.41;4991461;28;20042;-79
2023/03/12 08:28:24;;;;;;;0.80;0.80;;;;;;;4.09;100.00;96166.94;4982496;28;20050;-79
2023/03/12 08:30:54;;;;;;;0.70;0.70;;;;;;;4.13;100.00;96170.66;4987973;28;20517;-79
2023/03/12 08:33:21;;;;;;;0.80;0.80;;;;;;;4.17;100.00;96161.03;4971690;28;20046;-82
2023/03/12 08:35:51;;;;;;;0.80;0.80;;;;;;;4.17;100.00;96160.22;4986032;28;20105;-79
2023/03/12 08:38:18;;;;;;;0.80;0.80;;;;;;;4.20;100.00;96165.81;4988232;28;20137;-78
2023/03/12 08:40:46;;;;;;;0.90;0.90;;;;;;;4.21;100.00;96151.41;4989998;28;20050;-81
2023/03/12 08:43:13;;;;;;;0.80;0.80;;;;;;;4.21;100.00;96147.94;4985954;28;20084;-81
2023/03/12 08:45:40;;;;;;;0.80;0.80;;;;;;;4.20;100.00;96146.34;4982921;28;20183;-80
2023/03/12 08:48:07;;;;;;;0.90;0.90;;;;;;;4.22;100.00;96136.19;4981432;28;20054;-81
2023/03/12 08:50:34;;;;;;;0.90;0.90;;;;;;;4.25;100.00;96138.31;4982046;28;20460;-79
2023/03/12 08:53:01;;;;;;;0.80;0.80;;;;;;;4.27;100.00;96141.50;4980271;28;20133;-79
2023/03/12 08:55:29;;;;;;;0.80;0.80;;;;;;;4.29;100.00;96128.69;4970885;28;20077;-83
2023/03/12 08:57:56;;;;;;;0.70;0.70;;;;;;;4.24;100.00;96120.69;4971103;28;20058;-81
2023/03/12 09:00:25;;;;;;;0.90;0.90;;;;;;;4.25;100.00;96117.75;4971166;28;20051;-80
2023/03/12 09:02:53;;;;;;;0.80;0.80;;;;;;;4.37;100.00;96119.31;4960452;28;20047;-80
2023/03/12 09:05:20;;;;;;;0.70;0.70;;;;;;;4.41;100.00;96115.03;4989801;28;20038;-77
2023/03/12 09:07:53;;;;;;;0.80;0.80;;;;;;;4.48;100.00;96112.81;4990011;28;20046;-82
2023/03/12 09:10:20;;;;;;;0.80;0.80;;;;;;;4.49;100.00;96114.44;4976067;28;20085;-82
2023/03/12 09:12:50;;;;;;;0.80;0.80;;;;;;;4.48;100.00;96107.47;4976327;28;20062;-80
2023/03/12 09:15:17;;;;;;;0.80;0.80;;;;;;;4.50;100.00;96116.03;4989574;28;20054;-81
2023/03/12 09:17:46;;;;;;;0.90;0.90;;;;;;;4.48;100.00;96112.81;4988590;28;20057;-79
2023/03/12 09:20:13;;;;;;;0.82;0.82;;;;;;;4.46;100.00;96104.31;4990272;28;20089;-83
2023/03/12 09:22:41;;;;;;;0.80;0.80;;;;;;;4.52;100.00;96093.31;4984788;28;20050;-82
2023/03/12 09:25:09;;;;;;;0.80;0.80;;;;;;;4.46;100.00;96078.41;4978134;28;20051;-79
2023/03/12 09:27:37;;;;;;;0.70;0.70;;;;;;;4.47;100.00;96071.19;4970357;28;20106;-78
2023/03/12 09:30:06;;;;;;;0.80;0.80;;;;;;;4.46;100.00;96082.94;4970583;28;20098;-79
2023/03/12 09:32:33;;;;;;;0.80;0.80;;;;;;;4.40;100.00;96074.16;4976381;28;20050;-82
2023/03/12 09:35:06;;;;;;;0.70;0.70;;;;;;;4.45;100.00;96076.78;4976308;28;20097;-80
2023/03/12 09:37:36;;;;;;;0.80;0.80;;;;;;;4.49;100.00;96077.84;4985218;28;20089;-81
2023/03/12 09:40:06;;;;;;;0.70;0.70;;;;;;;4.45;100.00;96065.31;4983497;28;20046;-79
2023/03/12 09:42:39;;;;;;;0.70;0.70;;;;;;;4.49;100.00;96058.34;4970645;28;20055;-82
2023/03/12 09:45:10;;;;;;;0.73;0.73;;;;;;;4.45;100.00;96039.41;4970360;28;20055;-79
2023/03/12 09:47:46;;;;;;;0.80;0.80;;;;;;;4.44;100.00;96043.16;4969185;28;20101;-79
2023/03/12 09:50:28;;;;;;;0.90;0.90;;;;;;;4.51;100.00;96042.84;4974689;28;20107;-84
2023/03/12 09:53:29;;;;;;;0.80;0.80;;;;;;;4.58;100.00;96040.63;4987285;28;20061;-84
2023/03/12 09:55:58;;;;;;;0.80;0.80;;;;;;;4.55;100.00;96031.31;4978946;28;20497;-81
2023/03/12 09:58:37;;;;;;;0.80;0.80;;;;;;;4.53;100.00;96030.00;4980254;28;20055;-82
2023/03/12 10:01:31;;;;;;;0.73;0.73;;;;;;;4.47;100.00;96023.91;4985171;28;20057;-81
2023/03/12 10:04:13;;;;;;;0.70;0.70;;;;;;;4.44;100.00;96013.00;4989727;28;20065;-82
2023/03/12 10:06:52;;;;;;;0.80;0.80;;;;;;;4.45;100.00;96006.56;4980867;28;20150;-80
2023/03/12 10:09:43;;;;;;;0.80;0.80;;;;;;;4.43;100.00;96006.03;4986691;28;20061;-78
2023/03/12 10:12:34;;;;;;;0.80;0.80;;;;;;;4.43;100.00;96001.50;4988238;28;20409;-80
2023/03/12 10:15:36;;;;;;;0.80;0.80;;;;;;;4.47;100.00;96005.22;4988456;28;20513;-78
2023/03/12 10:18:31;;;;;;;0.80;0.80;;;;;;;4.53;100.00;96000.63;4994847;28;20137;-78
2023/03/12 10:21:16;;;;;;;0.80;0.80;;;;;;;4.54;100.00;95991.53;4989745;28;20056;-80
2023/03/12 10:23:49;;;;;;;;;;;;;;;4.55;100.00;95990.47;4991791;28;20052;-79
2023/03/12 10:26:28;;;;;;;0.90;0.90;;;;;;;4.60;100.00;95976.28;4991969;28;20415;-78
2023/03/12 10:29:24;;;;;;;0.80;0.80;;;;;;;4.60;100.00;95973.59;4975996;28;20078;-79
2023/03/12 10:32:09;;;;;;;0.82;0.82;;;;;;;4.58;100.00;95979.22;4987686;28;20046;-77
2023/03/12 10:34:43;;;;;;;0.82;0.82;;;;;;;4.57;100.00;95962.38;4992156;28;20062;-79
2023/03/12 10:37:18;;;;;;;0.88;0.88;;;;;;;4.60;100.00;95974.38;4992440;28;20046;-79
2023/03/12 10:39:45;;;;;;;;;;;;;;;4.57;100.00;95973.06;4986354;28;20421;-78
2023/03/12 10:42:17;;;;;;;0.80;0.80;;;;;;;4.58;100.00;95965.84;4987807;28;19925;-81
2023/03/12 10:44:51;;;;;;;0.80;0.80;;;;;;;4.55;100.00;95953.06;4984198;28;20042;-79
2023/03/12 10:47:27;;;;;;;0.90;0.90;;;;;;;4.56;100.00;95946.66;4990104;28;20080;-79
2023/03/12 10:50:20;;;;;;;0.80;0.80;;;;;;;4.53;100.00;95955.22;4978937;28;20043;-80
2023/03/12 10:53:14;;;;;;;0.80;0.80;;;;;;;4.57;100.00;95940.22;4981596;28;20069;-78
2023/03/12 10:55:41;;;;;;;0.80;0.80;;;;;;;4.52;100.00;95940.28;4987281;28;20049;-78
2023/03/12 10:58:22;;;;;;;0.70;0.70;;;;;;;4.56;100.00;95944.00;5003033;28;20500;-81
2023/03/12 11:01:00;;;;;;;0.80;0.80;;;;;;;4.57;100.00;95935.69;5009841;28;20081;-81
2023/03/12 11:03:32;;;;;;;0.80;0.80;;;;;;;4.63;100.00;95939.09;5000508;28;20402;-81
2023/03/12 11:06:01;;;;;;;0.80;0.80;;;;;;;4.66;100.00;95922.53;4985838;28;20066;-81
2023/03/12 11:08:34;;;;;;;0.80;0.80;;;;;;;4.65;100.00;95936.16;4994299;28;20063;-81
2023/03/12 11:11:03;;;;;;;0.80;0.80;;;;;;;4.67;100.00;95926.00;5001126;28;20121;-80
2023/03/12 11:13:34;;;;;;;0.80;0.80;;;;;;;4.73;100.00;95925.66;4988075;28;20632;-80
2023/03/12 11:16:24;;;;;;;0.80;0.80;;;;;;;4.72;100.00;95918.72;4989639;28;20073;-79
2023/03/12 11:18:56;;;;;;;0.80;0.80;;;;;;;4.77;100.00;95916.00;4999241;28;20065;-79
2023/03/12 11:21:27;;;;;;;0.80;0.80;;;;;;;4.78;100.00;95904.25;4998553;28;20064;-80
2023/03/12 11:23:55;;;;;;;0.70;0.70;;;;;;;4.72;100.00;95921.41;4992183;28;20482;-79
2023/03/12 11:26:31;;;;;;;0.70;0.70;;;;;;;4.65;100.00;95912.91;5001049;28;20137;-80
2023/03/12 11:29:16;;;;;;;0.80;0.80;;;;;;;4.61;100.00;95935.94;5011583;28;20096;-78
2023/03/12 11:31:57;;;;;;;0.80;0.80;;;;;;;3.99;100.00;95967.63;5000943;28;20193;-79
2023/03/12 11:34:36;;;;;;;0.70;0.70;;;;;;;3.32;100.00;95955.66;4997051;28;20058;-80
2023/03/12 11:37:14;;;;;;;0.80;0.80;;;;;;;2.91;100.00;95975.25;4980947;28;20514;-80
2023/03/12 11:39:50;;;;;;;0.90;0.90;;;;;;;2.50;100.00;95980.59;4993013;28;20085;-80
2023/03/12 11:42:30;;;;;;;0.90;0.90;;;;;;;2.26;100.00;95991.00;5013530;28;20057;-81
2023/03/12 11:45:14;;;;;;;0.80;0.80;;;;;;;2.13;100.00;95986.19;4983963;28;20043;-78
2023/03/12 11:48:18;;;;;;;0.90;0.90;;;;;;;2.02;100.00;96001.31;4971753;28;20145;-80
2023/03/12 11:51:10;;;;;;;0.90;0.90;;;;;;;1.73;100.00;96001.78;4986995;28;20529;-79
2023/03/12 11:54:01;;;;;;;0.90;0.90;;;;;;;1.55;100.00;96015.53;4992810;28;20519;-80